sensor_id;sensor_type;location;lat;lon;timestamp;P1;durP1;ratioP1;P2;durP2;ratioP2
5995;SDS011;3026;53.612;7.278;2023-03-21T00:00:27;12.83;;;7.80;;
5995;SDS011;3026;53.612;7.278;2023-03-21T00:02:54;14.73;;;9.80;;
5995;SDS011;3026;53.612;7.278;2023-03-21T00:05:21;12.93;;;8.60;;
5995;SDS011;3026;53.612;7.278;2023-03-21T00:07:48;13.30;;;8.80;;
5995;SDS011;3026;53.612;7.278;2023-03-21T00:10:16;12.33;;;8.73;;
5995;SDS011;3026;53.612;7.278;2023-03-21T00:12:43;11.30;;;7.90;;
5995;SDS011;3026;53.612;7.278;2023-03-21T00:15:10;11.87;;;8.70;;
5995;SDS011;3026;53.612;7.278;2023-03-21T00:17:39;14.57;;;9.70;;
5995;SDS011;3026;53.612;7.278;2023-03-21T00:20:09;16.93;;;9.07;;
5995;SDS011;3026;53.612;7.278;2023-03-21T00:22:39;13.63;;;8.60;;
5995;SDS011;3026;53.612;7.278;2023-03-21T00:25:07;11.57;;;8.10;;
5995;SDS011;3026;53.612;7.278;2023-03-21T00:27:34;11.03;;;7.93;;
5995;SDS011;3026;53.612;7.278;2023-03-21T00:30:02;12.00;;;8.90;;
5995;SDS011;3026;53.612;7.278;2023-03-21T00:32:29;10.63;;;7.77;;
5995;SDS011;3026;53.612;7.278;2023-03-21T00:34:57;13.33;;;8.90;;
5995;SDS011;3026;53.612;7.278;2023-03-21T00:37:24;13.23;;;8.50;;
5995;SDS011;3026;53.612;7.278;2023-03-21T00:39:52;13.50;;;8.67;;
5995;SDS011;3026;53.612;7.278;2023-03-21T00:42:19;11.97;;;7.63;;
5995;SDS011;3026;53.612;7.278;2023-03-21T00:44:46;12.97;;;8.90;;
5995;SDS011;3026;53.612;7.278;2023-03-21T00:47:13;14.27;;;9.50;;
5995;SDS011;3026;53.612;7.278;2023-03-21T00:49:40;14.87;;;9.67;;
5995;SDS011;3026;53.612;7.278;2023-03-21T00:52:08;15.10;;;9.67;;
5995;SDS011;3026;53.612;7.278;2023-03-21T00:54:36;14.30;;;10.07;;
5995;SDS011;3026;53.612;7.278;2023-03-21T00:57:03;15.07;;;10.13;;
5995;SDS011;3026;53.612;7.278;2023-03-21T00:59:29;15.43;;;10.03;;
5995;SDS011;3026;53.612;7.278;2023-03-21T01:01:56;17.03;;;11.47;;
5995;SDS011;3026;53.612;7.278;2023-03-21T01:04:25;15.33;;;9.97;;
5995;SDS011;3026;53.612;7.278;2023-03-21T01:06:53;12.77;;;9.13;;
5995;SDS011;3026;53.612;7.278;2023-03-21T01:09:22;14.77;;;9.47;;
5995;SDS011;3026;53.612;7.278;2023-03-21T01:11:49;14.63;;;9.83;;
5995;SDS011;3026;53.612;7.278;2023-03-21T01:14:17;13.83;;;9.87;;
5995;SDS011;3026;53.612;7.278;2023-03-21T01:16:46;16.20;;;10.73;;
5995;SDS011;3026;53.612;7.278;2023-03-21T01:19:14;17.97;;;10.83;;
5995;SDS011;3026;53.612;7.278;2023-03-21T01:21:43;17.27;;;11.13;;
5995;SDS011;3026;53.612;7.278;2023-03-21T01:24:10;17.63;;;10.80;;
5995;SDS011;3026;53.612;7.278;2023-03-21T01:26:38;18.20;;;11.87;;
5995;SDS011;3026;53.612;7.278;2023-03-21T01:29:05;17.73;;;10.73;;
5995;SDS011;3026;53.612;7.278;2023-03-21T01:31:32;18.10;;;12.10;;
5995;SDS011;3026;53.612;7.278;2023-03-21T01:33:58;17.03;;;11.57;;
5995;SDS011;3026;53.612;7.278;2023-03-21T01:36:26;18.00;;;10.97;;
5995;SDS011;3026;53.612;7.278;2023-03-21T01:38:53;15.63;;;10.07;;
5995;SDS011;3026;53.612;7.278;2023-03-21T01:41:22;15.37;;;10.23;;
5995;SDS011;3026;53.612;7.278;2023-03-21T01:43:53;17.23;;;10.67;;
5995;SDS011;3026;53.612;7.278;2023-03-21T01:46:37;15.03;;;10.40;;
5995;SDS011;3026;53.612;7.278;2023-03-21T01:49:06;14.87;;;9.70;;
5995;SDS011;3026;53.612;7.278;2023-03-21T01:51:38;12.27;;;8.97;;
5995;SDS011;3026;53.612;7.278;2023-03-21T01:54:08;14.80;;;9.83;;
5995;SDS011;3026;53.612;7.278;2023-03-21T01:56:40;15.43;;;9.67;;
5995;SDS011;3026;53.612;7.278;2023-03-21T01:59:12;13.40;;;9.47;;
5995;SDS011;3026;53.612;7.278;2023-03-21T02:01:45;16.03;;;9.53;;
5995;SDS011;3026;53.612;7.278;2023-03-21T02:04:13;13.60;;;8.77;;
5995;SDS011;3026;53.612;7.278;2023-03-21T02:06:48;13.63;;;9.13;;
5995;SDS011;3026;53.612;7.278;2023-03-21T02:09:19;14.43;;;9.00;;
5995;SDS011;3026;53.612;7.278;2023-03-21T02:11:49;12.07;;;8.20;;
5995;SDS011;3026;53.612;7.278;2023-03-21T02:14:18;13.57;;;8.93;;
5995;SDS011;3026;53.612;7.278;2023-03-21T02:16:47;11.23;;;8.17;;
5995;SDS011;3026;53.612;7.278;2023-03-21T02:19:29;10.77;;;7.70;;
5995;SDS011;3026;53.612;7.278;2023-03-21T02:22:23;12.17;;;7.87;;
5995;SDS011;3026;53.612;7.278;2023-03-21T02:25:17;11.70;;;7.60;;
5995;SDS011;3026;53.612;7.278;2023-03-21T02:28:17;11.17;;;7.77;;
5995;SDS011;3026;53.612;7.278;2023-03-21T02:30:59;9.40;;;7.10;;
5995;SDS011;3026;53.612;7.278;2023-03-21T02:33:48;10.17;;;7.60;;
5995;SDS011;3026;53.612;7.278;2023-03-21T02:39:41;9.37;;;7.43;;
5995;SDS011;3026;53.612;7.278;2023-03-21T02:42:20;11.27;;;7.73;;
5995;SDS011;3026;53.612;7.278;2023-03-21T02:44:55;10.37;;;7.47;;
5995;SDS011;3026;53.612;7.278;2023-03-21T02:47:28;9.37;;;7.17;;
5995;SDS011;3026;53.612;7.278;2023-03-21T02:50:02;9.23;;;6.90;;
5995;SDS011;3026;53.612;7.278;2023-03-21T02:52:34;10.13;;;7.00;;
5995;SDS011;3026;53.612;7.278;2023-03-21T02:55:03;9.77;;;7.27;;
5995;SDS011;3026;53.612;7.278;2023-03-21T02:57:37;9.93;;;6.53;;
5995;SDS011;3026;53.612;7.278;2023-03-21T03:00:07;10.50;;;7.00;;
5995;SDS011;3026;53.612;7.278;2023-03-21T03:02:37;10.57;;;7.13;;
5995;SDS011;3026;53.612;7.278;2023-03-21T03:05:12;9.20;;;6.50;;
5995;SDS011;3026;53.612;7.278;2023-03-21T03:07:44;10.33;;;7.30;;
5995;SDS011;3026;53.612;7.278;2023-03-21T03:10:25;9.80;;;6.67;;
5995;SDS011;3026;53.612;7.278;2023-03-21T03:13:03;9.53;;;6.37;;
5995;SDS011;3026;53.612;7.278;2023-03-21T03:15:40;8.53;;;6.23;;
5995;SDS011;3026;53.612;7.278;2023-03-21T03:18:18;9.17;;;6.93;;
5995;SDS011;3026;53.612;7.278;2023-03-21T03:20:52;10.40;;;6.77;;
5995;SDS011;3026;53.612;7.278;2023-03-21T03:23:28;10.87;;;7.20;;
5995;SDS011;3026;53.612;7.278;2023-03-21T03:26:01;12.50;;;7.97;;
5995;SDS011;3026;53.612;7.278;2023-03-21T03:28:32;12.67;;;7.97;;
5995;SDS011;3026;53.612;7.278;2023-03-21T03:31:03;11.70;;;7.63;;
5995;SDS011;3026;53.612;7.278;2023-03-21T03:33:32;14.63;;;7.90;;
5995;SDS011;3026;53.612;7.278;2023-03-21T03:36:02;18.13;;;9.20;;
5995;SDS011;3026;53.612;7.278;2023-03-21T03:38:32;16.53;;;9.53;;
5995;SDS011;3026;53.612;7.278;2023-03-21T03:41:03;15.43;;;9.33;;
5995;SDS011;3026;53.612;7.278;2023-03-21T03:43:35;24.33;;;11.30;;
5995;SDS011;3026;53.612;7.278;2023-03-21T03:46:10;26.83;;;11.70;;
5995;SDS011;3026;53.612;7.278;2023-03-21T03:48:42;26.27;;;11.73;;
5995;SDS011;3026;53.612;7.278;2023-03-21T03:51:15;27.90;;;13.03;;
5995;SDS011;3026;53.612;7.278;2023-03-21T03:53:48;22.93;;;11.67;;
5995;SDS011;3026;53.612;7.278;2023-03-21T03:56:21;28.83;;;12.67;;
5995;SDS011;3026;53.612;7.278;2023-03-21T03:58:49;27.83;;;13.53;;
5995;SDS011;3026;53.612;7.278;2023-03-21T04:01:16;23.50;;;12.17;;
5995;SDS011;3026;53.612;7.278;2023-03-21T04:03:44;28.30;;;12.87;;
5995;SDS011;3026;53.612;7.278;2023-03-21T04:06:13;26.97;;;12.77;;
5995;SDS011;3026;53.612;7.278;2023-03-21T04:08:41;22.77;;;10.43;;
5995;SDS011;3026;53.612;7.278;2023-03-21T04:11:11;24.23;;;11.10;;
5995;SDS011;3026;53.612;7.278;2023-03-21T04:13:39;22.83;;;11.87;;
5995;SDS011;3026;53.612;7.278;2023-03-21T04:16:07;20.30;;;10.47;;
5995;SDS011;3026;53.612;7.278;2023-03-21T04:18:35;19.90;;;10.83;;
5995;SDS011;3026;53.612;7.278;2023-03-21T04:21:05;21.37;;;11.17;;
5995;SDS011;3026;53.612;7.278;2023-03-21T04:23:34;18.77;;;9.77;;
5995;SDS011;3026;53.612;7.278;2023-03-21T04:26:01;26.03;;;11.27;;
5995;SDS011;3026;53.612;7.278;2023-03-21T04:28:30;28.70;;;12.40;;
5995;SDS011;3026;53.612;7.278;2023-03-21T04:30:57;25.57;;;11.13;;
5995;SDS011;3026;53.612;7.278;2023-03-21T04:33:24;24.67;;;12.07;;
5995;SDS011;3026;53.612;7.278;2023-03-21T04:35:57;22.77;;;10.80;;
5995;SDS011;3026;53.612;7.278;2023-03-21T04:38:24;22.93;;;12.43;;
5995;SDS011;3026;53.612;7.278;2023-03-21T04:40:54;28.40;;;13.10;;
5995;SDS011;3026;53.612;7.278;2023-03-21T04:43:21;30.57;;;13.37;;
5995;SDS011;3026;53.612;7.278;2023-03-21T04:45:50;27.80;;;14.00;;
5995;SDS011;3026;53.612;7.278;2023-03-21T04:48:17;25.33;;;13.57;;
5995;SDS011;3026;53.612;7.278;2023-03-21T04:50:44;25.43;;;13.43;;
5995;SDS011;3026;53.612;7.278;2023-03-21T04:53:12;24.80;;;13.23;;
5995;SDS011;3026;53.612;7.278;2023-03-21T04:55:38;22.87;;;12.57;;
5995;SDS011;3026;53.612;7.278;2023-03-21T04:58:05;25.67;;;13.80;;
5995;SDS011;3026;53.612;7.278;2023-03-21T05:00:32;24.77;;;12.73;;
5995;SDS011;3026;53.612;7.278;2023-03-21T05:03:03;22.83;;;13.43;;
5995;SDS011;3026;53.612;7.278;2023-03-21T05:05:33;23.87;;;12.37;;
5995;SDS011;3026;53.612;7.278;2023-03-21T05:08:00;23.00;;;12.50;;
5995;SDS011;3026;53.612;7.278;2023-03-21T05:10:28;23.23;;;12.67;;
5995;SDS011;3026;53.612;7.278;2023-03-21T05:12:54;21.80;;;12.63;;
5995;SDS011;3026;53.612;7.278;2023-03-21T05:15:21;21.27;;;12.07;;
5995;SDS011;3026;53.612;7.278;2023-03-21T05:17:48;23.53;;;13.07;;
5995;SDS011;3026;53.612;7.278;2023-03-21T05:20:18;25.10;;;14.23;;
5995;SDS011;3026;53.612;7.278;2023-03-21T05:22:45;24.53;;;13.90;;
5995;SDS011;3026;53.612;7.278;2023-03-21T05:25:15;23.07;;;14.23;;
5995;SDS011;3026;53.612;7.278;2023-03-21T05:27:59;26.17;;;14.70;;
5995;SDS011;3026;53.612;7.278;2023-03-21T05:30:26;22.87;;;14.43;;
5995;SDS011;3026;53.612;7.278;2023-03-21T05:32:54;23.53;;;14.90;;
5995;SDS011;3026;53.612;7.278;2023-03-21T05:35:22;26.17;;;16.83;;
5995;SDS011;3026;53.612;7.278;2023-03-21T05:37:49;26.13;;;15.97;;
5995;SDS011;3026;53.612;7.278;2023-03-21T05:40:17;23.67;;;14.73;;
5995;SDS011;3026;53.612;7.278;2023-03-21T05:42:46;26.60;;;14.87;;
5995;SDS011;3026;53.612;7.278;2023-03-21T05:45:13;24.67;;;14.70;;
5995;SDS011;3026;53.612;7.278;2023-03-21T05:47:40;27.30;;;14.63;;
5995;SDS011;3026;53.612;7.278;2023-03-21T05:50:08;24.73;;;14.90;;
5995;SDS011;3026;53.612;7.278;2023-03-21T05:52:39;23.87;;;13.77;;
5995;SDS011;3026;53.612;7.278;2023-03-21T05:55:08;24.57;;;15.23;;
5995;SDS011;3026;53.612;7.278;2023-03-21T05:57:38;26.67;;;16.03;;
5995;SDS011;3026;53.612;7.278;2023-03-21T06:00:05;25.47;;;14.93;;
5995;SDS011;3026;53.612;7.278;2023-03-21T06:02:33;25.23;;;15.07;;
5995;SDS011;3026;53.612;7.278;2023-03-21T06:05:00;23.93;;;14.27;;
5995;SDS011;3026;53.612;7.278;2023-03-21T06:07:27;24.87;;;14.50;;
5995;SDS011;3026;53.612;7.278;2023-03-21T06:09:55;25.90;;;14.27;;
5995;SDS011;3026;53.612;7.278;2023-03-21T06:12:22;21.17;;;13.13;;
5995;SDS011;3026;53.612;7.278;2023-03-21T06:14:49;18.97;;;12.30;;
5995;SDS011;3026;53.612;7.278;2023-03-21T06:17:16;21.97;;;13.53;;
5995;SDS011;3026;53.612;7.278;2023-03-21T06:19:42;21.90;;;12.50;;
5995;SDS011;3026;53.612;7.278;2023-03-21T06:22:09;22.50;;;12.67;;
5995;SDS011;3026;53.612;7.278;2023-03-21T06:24:36;24.43;;;12.43;;
5995;SDS011;3026;53.612;7.278;2023-03-21T06:27:05;21.03;;;11.50;;
5995;SDS011;3026;53.612;7.278;2023-03-21T06:29:32;20.20;;;12.03;;
5995;SDS011;3026;53.612;7.278;2023-03-21T06:31:59;20.13;;;12.40;;
5995;SDS011;3026;53.612;7.278;2023-03-21T06:34:26;22.27;;;12.03;;
5995;SDS011;3026;53.612;7.278;2023-03-21T06:36:53;18.53;;;12.20;;
5995;SDS011;3026;53.612;7.278;2023-03-21T06:39:20;18.70;;;11.90;;
5995;SDS011;3026;53.612;7.278;2023-03-21T06:41:47;20.27;;;12.10;;
5995;SDS011;3026;53.612;7.278;2023-03-21T06:44:15;20.57;;;12.10;;
5995;SDS011;3026;53.612;7.278;2023-03-21T06:46:42;18.87;;;11.47;;
5995;SDS011;3026;53.612;7.278;2023-03-21T06:49:09;16.97;;;11.40;;
5995;SDS011;3026;53.612;7.278;2023-03-21T06:51:36;20.17;;;11.87;;
5995;SDS011;3026;53.612;7.278;2023-03-21T06:54:02;17.43;;;10.97;;
5995;SDS011;3026;53.612;7.278;2023-03-21T06:56:29;16.17;;;10.73;;
5995;SDS011;3026;53.612;7.278;2023-03-21T06:58:56;18.73;;;11.53;;
5995;SDS011;3026;53.612;7.278;2023-03-21T07:01:25;16.17;;;10.67;;
5995;SDS011;3026;53.612;7.278;2023-03-21T07:03:54;16.50;;;10.73;;
5995;SDS011;3026;53.612;7.278;2023-03-21T07:06:23;16.07;;;10.07;;
5995;SDS011;3026;53.612;7.278;2023-03-21T07:08:51;19.33;;;10.60;;
5995;SDS011;3026;53.612;7.278;2023-03-21T07:11:19;16.17;;;10.13;;
5995;SDS011;3026;53.612;7.278;2023-03-21T07:13:46;16.90;;;10.97;;
5995;SDS011;3026;53.612;7.278;2023-03-21T07:16:13;15.13;;;9.67;;
5995;SDS011;3026;53.612;7.278;2023-03-21T07:18:41;17.23;;;10.40;;
5995;SDS011;3026;53.612;7.278;2023-03-21T07:21:08;16.60;;;10.93;;
5995;SDS011;3026;53.612;7.278;2023-03-21T07:23:35;16.63;;;11.00;;
5995;SDS011;3026;53.612;7.278;2023-03-21T07:26:02;16.37;;;10.43;;
5995;SDS011;3026;53.612;7.278;2023-03-21T07:28:30;17.07;;;9.83;;
5995;SDS011;3026;53.612;7.278;2023-03-21T07:30:58;18.17;;;10.63;;
5995;SDS011;3026;53.612;7.278;2023-03-21T07:33:28;14.33;;;9.33;;
5995;SDS011;3026;53.612;7.278;2023-03-21T07:35:57;10.77;;;7.90;;
5995;SDS011;3026;53.612;7.278;2023-03-21T07:38:26;12.37;;;8.33;;
5995;SDS011;3026;53.612;7.278;2023-03-21T07:40:55;11.27;;;7.13;;
5995;SDS011;3026;53.612;7.278;2023-03-21T07:43:24;9.70;;;6.63;;
5995;SDS011;3026;53.612;7.278;2023-03-21T07:45:55;11.87;;;7.40;;
5995;SDS011;3026;53.612;7.278;2023-03-21T07:48:22;10.37;;;6.93;;
5995;SDS011;3026;53.612;7.278;2023-03-21T07:50:49;9.43;;;6.97;;
5995;SDS011;3026;53.612;7.278;2023-03-21T07:53:18;13.03;;;7.83;;
5995;SDS011;3026;53.612;7.278;2023-03-21T07:55:48;12.47;;;7.83;;
5995;SDS011;3026;53.612;7.278;2023-03-21T07:58:15;11.07;;;7.70;;
5995;SDS011;3026;53.612;7.278;2023-03-21T08:00:42;14.03;;;9.03;;
5995;SDS011;3026;53.612;7.278;2023-03-21T08:03:09;10.37;;;7.80;;
5995;SDS011;3026;53.612;7.278;2023-03-21T08:05:36;15.70;;;9.27;;
5995;SDS011;3026;53.612;7.278;2023-03-21T08:08:04;12.73;;;8.50;;
5995;SDS011;3026;53.612;7.278;2023-03-21T08:10:33;10.90;;;6.83;;
5995;SDS011;3026;53.612;7.278;2023-03-21T08:13:00;11.63;;;7.50;;
5995;SDS011;3026;53.612;7.278;2023-03-21T08:15:27;10.40;;;7.50;;
5995;SDS011;3026;53.612;7.278;2023-03-21T08:17:54;10.93;;;7.10;;
5995;SDS011;3026;53.612;7.278;2023-03-21T08:20:21;8.60;;;6.70;;
5995;SDS011;3026;53.612;7.278;2023-03-21T08:22:48;9.43;;;6.83;;
5995;SDS011;3026;53.612;7.278;2023-03-21T08:25:16;8.10;;;6.63;;
5995;SDS011;3026;53.612;7.278;2023-03-21T08:27:45;9.00;;;6.90;;
5995;SDS011;3026;53.612;7.278;2023-03-21T08:30:14;9.53;;;7.17;;
5995;SDS011;3026;53.612;7.278;2023-03-21T08:32:42;7.57;;;5.87;;
5995;SDS011;3026;53.612;7.278;2023-03-21T08:35:10;7.70;;;6.33;;
5995;SDS011;3026;53.612;7.278;2023-03-21T08:37:40;8.53;;;6.43;;
5995;SDS011;3026;53.612;7.278;2023-03-21T08:40:09;8.90;;;6.13;;
5995;SDS011;3026;53.612;7.278;2023-03-21T08:42:37;6.50;;;5.73;;
5995;SDS011;3026;53.612;7.278;2023-03-21T08:45:08;6.53;;;5.70;;
5995;SDS011;3026;53.612;7.278;2023-03-21T08:47:36;8.00;;;5.90;;
5995;SDS011;3026;53.612;7.278;2023-03-21T08:50:03;6.50;;;5.63;;
5995;SDS011;3026;53.612;7.278;2023-03-21T08:52:32;7.50;;;5.77;;
5995;SDS011;3026;53.612;7.278;2023-03-21T08:54:59;8.90;;;6.60;;
5995;SDS011;3026;53.612;7.278;2023-03-21T08:57:27;7.57;;;6.10;;
5995;SDS011;3026;53.612;7.278;2023-03-21T08:59:54;7.70;;;6.20;;
5995;SDS011;3026;53.612;7.278;2023-03-21T09:02:23;7.33;;;5.53;;
5995;SDS011;3026;53.612;7.278;2023-03-21T09:04:50;6.50;;;5.60;;
5995;SDS011;3026;53.612;7.278;2023-03-21T09:07:19;5.67;;;4.87;;
5995;SDS011;3026;53.612;7.278;2023-03-21T09:09:46;6.27;;;5.20;;
5995;SDS011;3026;53.612;7.278;2023-03-21T09:12:16;7.57;;;5.50;;
5995;SDS011;3026;53.612;7.278;2023-03-21T09:14:43;6.57;;;5.40;;
5995;SDS011;3026;53.612;7.278;2023-03-21T09:17:10;5.73;;;4.73;;
5995;SDS011;3026;53.612;7.278;2023-03-21T09:19:38;5.17;;;4.50;;
5995;SDS011;3026;53.612;7.278;2023-03-21T09:22:05;5.93;;;4.53;;
5995;SDS011;3026;53.612;7.278;2023-03-21T09:24:35;4.97;;;4.40;;
5995;SDS011;3026;53.612;7.278;2023-03-21T09:27:02;5.90;;;4.73;;
5995;SDS011;3026;53.612;7.278;2023-03-21T09:29:29;5.47;;;4.57;;
5995;SDS011;3026;53.612;7.278;2023-03-21T09:31:56;5.23;;;4.13;;
5995;SDS011;3026;53.612;7.278;2023-03-21T09:34:23;7.07;;;4.80;;
5995;SDS011;3026;53.612;7.278;2023-03-21T09:36:52;7.47;;;5.00;;
5995;SDS011;3026;53.612;7.278;2023-03-21T09:39:20;5.10;;;4.30;;
5995;SDS011;3026;53.612;7.278;2023-03-21T09:41:51;5.07;;;4.30;;
5995;SDS011;3026;53.612;7.278;2023-03-21T09:44:29;5.07;;;4.03;;
5995;SDS011;3026;53.612;7.278;2023-03-21T09:47:07;7.43;;;4.10;;
5995;SDS011;3026;53.612;7.278;2023-03-21T09:49:45;5.27;;;4.40;;
5995;SDS011;3026;53.612;7.278;2023-03-21T09:52:18;4.93;;;3.80;;
5995;SDS011;3026;53.612;7.278;2023-03-21T09:54:49;4.90;;;4.20;;
5995;SDS011;3026;53.612;7.278;2023-03-21T09:57:22;5.30;;;4.17;;
5995;SDS011;3026;53.612;7.278;2023-03-21T09:59:55;4.13;;;3.73;;
5995;SDS011;3026;53.612;7.278;2023-03-21T10:02:35;4.40;;;3.50;;
5995;SDS011;3026;53.612;7.278;2023-03-21T10:05:09;4.00;;;3.60;;
5995;SDS011;3026;53.612;7.278;2023-03-21T10:07:43;3.37;;;3.07;;
5995;SDS011;3026;53.612;7.278;2023-03-21T10:10:16;4.07;;;3.37;;
5995;SDS011;3026;53.612;7.278;2023-03-21T10:12:46;4.30;;;3.53;;
5995;SDS011;3026;53.612;7.278;2023-03-21T10:15:17;4.97;;;3.47;;
5995;SDS011;3026;53.612;7.278;2023-03-21T10:17:47;3.70;;;3.20;;
5995;SDS011;3026;53.612;7.278;2023-03-21T10:20:18;3.70;;;3.30;;
5995;SDS011;3026;53.612;7.278;2023-03-21T10:22:48;3.43;;;3.13;;
5995;SDS011;3026;53.612;7.278;2023-03-21T10:25:18;3.40;;;3.10;;
5995;SDS011;3026;53.612;7.278;2023-03-21T10:27:46;3.10;;;2.80;;
5995;SDS011;3026;53.612;7.278;2023-03-21T10:30:18;3.47;;;3.00;;
5995;SDS011;3026;53.612;7.278;2023-03-21T10:32:51;3.40;;;2.97;;
5995;SDS011;3026;53.612;7.278;2023-03-21T10:35:19;3.37;;;2.80;;
5995;SDS011;3026;53.612;7.278;2023-03-21T10:37:48;3.40;;;3.10;;
5995;SDS011;3026;53.612;7.278;2023-03-21T10:40:15;3.73;;;3.27;;
5995;SDS011;3026;53.612;7.278;2023-03-21T10:42:43;4.70;;;2.97;;
5995;SDS011;3026;53.612;7.278;2023-03-21T10:45:14;5.53;;;3.00;;
5995;SDS011;3026;53.612;7.278;2023-03-21T10:47:45;6.40;;;3.00;;
5995;SDS011;3026;53.612;7.278;2023-03-21T10:50:14;4.83;;;3.00;;
5995;SDS011;3026;53.612;7.278;2023-03-21T10:52:44;7.73;;;4.23;;
5995;SDS011;3026;53.612;7.278;2023-03-21T10:55:19;7.80;;;3.80;;
5995;SDS011;3026;53.612;7.278;2023-03-21T10:57:54;4.13;;;3.20;;
5995;SDS011;3026;53.612;7.278;2023-03-21T11:00:25;6.93;;;3.83;;
5995;SDS011;3026;53.612;7.278;2023-03-21T11:02:54;7.37;;;4.30;;
5995;SDS011;3026;53.612;7.278;2023-03-21T11:05:23;6.20;;;4.07;;
5995;SDS011;3026;53.612;7.278;2023-03-21T11:07:59;7.87;;;4.67;;
5995;SDS011;3026;53.612;7.278;2023-03-21T11:10:30;8.27;;;4.30;;
5995;SDS011;3026;53.612;7.278;2023-03-21T11:13:01;6.40;;;4.60;;
5995;SDS011;3026;53.612;7.278;2023-03-21T11:15:32;8.47;;;4.10;;
5995;SDS011;3026;53.612;7.278;2023-03-21T11:18:13;8.63;;;5.30;;
5995;SDS011;3026;53.612;7.278;2023-03-21T11:20:43;9.77;;;5.37;;
5995;SDS011;3026;53.612;7.278;2023-03-21T11:23:15;6.37;;;5.20;;
5995;SDS011;3026;53.612;7.278;2023-03-21T11:25:45;7.00;;;5.27;;
5995;SDS011;3026;53.612;7.278;2023-03-21T11:28:15;7.87;;;4.83;;
5995;SDS011;3026;53.612;7.278;2023-03-21T11:30:48;6.37;;;5.10;;
5995;SDS011;3026;53.612;7.278;2023-03-21T11:33:18;7.60;;;5.33;;
5995;SDS011;3026;53.612;7.278;2023-03-21T11:35:56;8.00;;;5.07;;
5995;SDS011;3026;53.612;7.278;2023-03-21T11:38:26;8.43;;;5.07;;
5995;SDS011;3026;53.612;7.278;2023-03-21T11:40:58;9.03;;;5.33;;
5995;SDS011;3026;53.612;7.278;2023-03-21T11:43:27;6.60;;;5.47;;
5995;SDS011;3026;53.612;7.278;2023-03-21T11:45:56;7.77;;;5.87;;
5995;SDS011;3026;53.612;7.278;2023-03-21T11:48:24;9.93;;;6.40;;
5995;SDS011;3026;53.612;7.278;2023-03-21T11:50:51;8.83;;;6.07;;
5995;SDS011;3026;53.612;7.278;2023-03-21T11:53:28;10.97;;;6.83;;
5995;SDS011;3026;53.612;7.278;2023-03-21T11:56:11;7.63;;;6.60;;
5995;SDS011;3026;53.612;7.278;2023-03-21T11:58:50;9.47;;;6.57;;
5995;SDS011;3026;53.612;7.278;2023-03-21T12:01:45;11.90;;;6.57;;
5995;SDS011;3026;53.612;7.278;2023-03-21T12:04:30;9.03;;;6.37;;
5995;SDS011;3026;53.612;7.278;2023-03-21T12:07:08;9.43;;;6.80;;
5995;SDS011;3026;53.612;7.278;2023-03-21T12:09:49;10.03;;;7.10;;
5995;SDS011;3026;53.612;7.278;2023-03-21T12:12:28;9.53;;;7.40;;
5995;SDS011;3026;53.612;7.278;2023-03-21T12:15:05;10.17;;;7.60;;
5995;SDS011;3026;53.612;7.278;2023-03-21T12:17:41;14.57;;;7.83;;
5995;SDS011;3026;53.612;7.278;2023-03-21T12:20:18;10.70;;;8.17;;
5995;SDS011;3026;53.612;7.278;2023-03-21T12:22:55;10.73;;;7.83;;
5995;SDS011;3026;53.612;7.278;2023-03-21T12:25:34;13.53;;;9.03;;
5995;SDS011;3026;53.612;7.278;2023-03-21T12:28:13;9.47;;;8.47;;
5995;SDS011;3026;53.612;7.278;2023-03-21T12:30:50;12.33;;;8.73;;
5995;SDS011;3026;53.612;7.278;2023-03-21T12:33:30;15.07;;;9.13;;
5995;SDS011;3026;53.612;7.278;2023-03-21T12:36:11;12.00;;;9.00;;
5995;SDS011;3026;53.612;7.278;2023-03-21T12:38:49;13.53;;;9.00;;
5995;SDS011;3026;53.612;7.278;2023-03-21T12:41:23;13.10;;;8.73;;
5995;SDS011;3026;53.612;7.278;2023-03-21T12:43:54;14.27;;;10.20;;
5995;SDS011;3026;53.612;7.278;2023-03-21T12:46:25;12.37;;;8.83;;
5995;SDS011;3026;53.612;7.278;2023-03-21T12:48:57;15.10;;;9.83;;
5995;SDS011;3026;53.612;7.278;2023-03-21T12:51:28;11.27;;;8.90;;
5995;SDS011;3026;53.612;7.278;2023-03-21T12:53:59;12.97;;;8.57;;
5995;SDS011;3026;53.612;7.278;2023-03-21T12:56:36;11.60;;;7.93;;
5995;SDS011;3026;53.612;7.278;2023-03-21T12:59:15;11.07;;;7.50;;
5995;SDS011;3026;53.612;7.278;2023-03-21T13:01:49;13.47;;;8.70;;
5995;SDS011;3026;53.612;7.278;2023-03-21T13:04:27;12.23;;;7.27;;
5995;SDS011;3026;53.612;7.278;2023-03-21T13:07:00;13.63;;;7.80;;
5995;SDS011;3026;53.612;7.278;2023-03-21T13:09:33;10.77;;;7.67;;
5995;SDS011;3026;53.612;7.278;2023-03-21T13:12:02;8.50;;;7.20;;
5995;SDS011;3026;53.612;7.278;2023-03-21T13:14:42;12.13;;;7.53;;
5995;SDS011;3026;53.612;7.278;2023-03-21T13:17:18;12.33;;;7.17;;
5995;SDS011;3026;53.612;7.278;2023-03-21T13:19:52;12.40;;;8.17;;
5995;SDS011;3026;53.612;7.278;2023-03-21T13:22:25;10.80;;;7.17;;
5995;SDS011;3026;53.612;7.278;2023-03-21T13:24:57;10.97;;;7.47;;
5995;SDS011;3026;53.612;7.278;2023-03-21T13:27:26;13.00;;;7.07;;
5995;SDS011;3026;53.612;7.278;2023-03-21T13:29:59;14.23;;;8.07;;
5995;SDS011;3026;53.612;7.278;2023-03-21T13:32:31;11.27;;;7.47;;
5995;SDS011;3026;53.612;7.278;2023-03-21T13:35:00;12.43;;;7.70;;
5995;SDS011;3026;53.612;7.278;2023-03-21T13:37:38;12.07;;;7.50;;
5995;SDS011;3026;53.612;7.278;2023-03-21T13:40:18;12.00;;;7.87;;
5995;SDS011;3026;53.612;7.278;2023-03-21T13:42:49;11.37;;;7.23;;
5995;SDS011;3026;53.612;7.278;2023-03-21T13:45:27;12.87;;;8.23;;
5995;SDS011;3026;53.612;7.278;2023-03-21T13:47:57;13.30;;;8.30;;
5995;SDS011;3026;53.612;7.278;2023-03-21T13:50:27;12.43;;;8.27;;
5995;SDS011;3026;53.612;7.278;2023-03-21T13:53:18;12.00;;;7.53;;
5995;SDS011;3026;53.612;7.278;2023-03-21T13:55:58;13.13;;;8.10;;
5995;SDS011;3026;53.612;7.278;2023-03-21T13:58:33;13.47;;;7.30;;
5995;SDS011;3026;53.612;7.278;2023-03-21T14:03:57;11.93;;;8.03;;
5995;SDS011;3026;53.612;7.278;2023-03-21T14:06:30;11.97;;;7.20;;
5995;SDS011;3026;53.612;7.278;2023-03-21T14:09:00;14.00;;;8.23;;
5995;SDS011;3026;53.612;7.278;2023-03-21T14:11:28;13.10;;;7.90;;
5995;SDS011;3026;53.612;7.278;2023-03-21T14:13:58;14.57;;;7.63;;
5995;SDS011;3026;53.612;7.278;2023-03-21T14:16:32;9.90;;;6.77;;
5995;SDS011;3026;53.612;7.278;2023-03-21T14:19:06;10.90;;;7.43;;
5995;SDS011;3026;53.612;7.278;2023-03-21T14:21:34;12.00;;;7.00;;
5995;SDS011;3026;53.612;7.278;2023-03-21T14:24:03;11.23;;;7.47;;
5995;SDS011;3026;53.612;7.278;2023-03-21T14:26:42;10.77;;;7.47;;
5995;SDS011;3026;53.612;7.278;2023-03-21T14:29:18;10.93;;;7.53;;
5995;SDS011;3026;53.612;7.278;2023-03-21T14:32:04;11.57;;;7.00;;
5995;SDS011;3026;53.612;7.278;2023-03-21T14:34:32;9.77;;;6.77;;
5995;SDS011;3026;53.612;7.278;2023-03-21T14:37:10;10.47;;;7.07;;
5995;SDS011;3026;53.612;7.278;2023-03-21T14:39:37;8.90;;;6.97;;
5995;SDS011;3026;53.612;7.278;2023-03-21T14:42:05;13.30;;;7.33;;
5995;SDS011;3026;53.612;7.278;2023-03-21T14:44:33;13.87;;;6.80;;
5995;SDS011;3026;53.612;7.278;2023-03-21T14:47:02;13.93;;;7.40;;
5995;SDS011;3026;53.612;7.278;2023-03-21T14:49:32;9.90;;;7.23;;
5995;SDS011;3026;53.612;7.278;2023-03-21T14:52:02;14.80;;;7.30;;
5995;SDS011;3026;53.612;7.278;2023-03-21T14:54:31;13.53;;;7.40;;
5995;SDS011;3026;53.612;7.278;2023-03-21T14:56:59;8.97;;;7.00;;
5995;SDS011;3026;53.612;7.278;2023-03-21T14:59:29;12.43;;;7.23;;
5995;SDS011;3026;53.612;7.278;2023-03-21T15:01:58;11.70;;;6.57;;
5995;SDS011;3026;53.612;7.278;2023-03-21T15:04:28;10.73;;;6.73;;
5995;SDS011;3026;53.612;7.278;2023-03-21T15:06:58;12.20;;;6.43;;
5995;SDS011;3026;53.612;7.278;2023-03-21T15:09:30;16.10;;;6.80;;
5995;SDS011;3026;53.612;7.278;2023-03-21T15:11:59;10.73;;;6.83;;
5995;SDS011;3026;53.612;7.278;2023-03-21T15:14:28;11.30;;;6.63;;
5995;SDS011;3026;53.612;7.278;2023-03-21T15:16:59;16.23;;;7.90;;
5995;SDS011;3026;53.612;7.278;2023-03-21T15:19:29;11.47;;;7.13;;
5995;SDS011;3026;53.612;7.278;2023-03-21T15:22:02;14.30;;;7.70;;
5995;SDS011;3026;53.612;7.278;2023-03-21T15:24:36;13.23;;;6.47;;
5995;SDS011;3026;53.612;7.278;2023-03-21T15:27:07;10.33;;;6.73;;
5995;SDS011;3026;53.612;7.278;2023-03-21T15:29:40;8.60;;;6.83;;